ポートルイス の空港の天気 - METARとTAF

サー・シウサガル・ラングラーム国際空港 ( FIMP / MRU ) - モーリシャス ポートルイス
飛行場実況気象(Metar)
観測時間09/28 03:00 MUT (09/27 23:00 UTC)
風向・風速東 5m/s
視程10km以上
天気現象
少しの雲 雲底高度 520m
全天の4割程度の雲 雲底高度 1520m
気温21℃
湿度64%
気圧1021hPa
METARFIMP 272300Z 10010KT 9999 FEW017 SCT050 21/14 Q1021
過去の天気等 Google飛行場航空写真 Wunderground天気予報

過去48時間のMETAR

飛行場予報(TAF)
発表時間: 9/27 21:40 MUT (9/27 17:40 UTC)
予報対象時間: 27日22時 MUT ~ 29日4時 MUT
風向・風速東南東 6m/s 瞬間風速 11m/s
視程10km以上
全天の4割程度の雲 雲底高度 520m
28日4時 MUT ~ 28日8時 MUT に 確率 30% で一時的に
視程7000m
天気現象弱いしゅう雨
全天の8割程度の雲 雲底高度 490m
TAF COR FIMP 271740Z 2718/2900 11012G22KT 9999 SCT017
PROB30 TEMPO 2800/2804 7000 -SHRA BKN016